Time;durP1;ratioP1;P1;durP2;ratioP2;P2;SDS_P1;SDS_P2;PMS_P1;PMS_P2;Temp;Humidity;BMP_temperature;BMP_pressure;BME280_temperature;BME280_humidity;BME280_pressure;Samples;Min_cycle;Max_cycle;Signal;HPM_P1;HPM_P2
2021/04/11 00:00:39;;;;;;;2.90;1.38;;;;;;;;;;4999222;28;20129;-57
2021/04/11 00:03:05;;;;;;;2.08;1.23;;;;;;;;;;4997287;28;20061;-55
2021/04/11 00:05:33;;;;;;;3.13;1.48;;;;;;;;;;5009651;28;20048;-54
2021/04/11 00:07:59;;;;;;;2.80;1.38;;;;;;;;;;5008408;28;20394;-57
2021/04/11 00:10:29;;;;;;;2.50;1.55;;;;;;;;;;5006247;28;20033;-52
2021/04/11 00:12:54;;;;;;;3.03;1.52;;;;;;;;;;4999959;28;20037;-57
2021/04/11 00:15:21;;;;;;;3.08;1.70;;;;;;;;;;5005797;28;20202;-52
2021/04/11 00:17:47;;;;;;;3.03;1.33;;;;;;;;;;5001166;28;20045;-54
2021/04/11 00:20:14;;;;;;;1.70;1.05;;;;;;;;;;5005151;28;20052;-53
2021/04/11 00:22:41;;;;;;;2.42;1.33;;;;;;;;;;5006691;28;20045;-51
2021/04/11 00:25:07;;;;;;;4.28;1.40;;;;;;;;;;5023284;28;20197;-57
2021/04/11 00:27:33;;;;;;;4.20;1.80;;;;;;;;;;5018060;28;20040;-52
2021/04/11 00:29:59;;;;;;;2.00;1.20;;;;;;;;;;5020651;28;20077;-58
2021/04/11 00:32:25;;;;;;;2.45;1.40;;;;;;;;;;5002051;28;20041;-55
2021/04/11 00:34:51;;;;;;;3.95;1.40;;;;;;;;;;5015926;28;20045;-54
2021/04/11 00:37:17;;;;;;;2.53;1.45;;;;;;;;;;5020697;28;20045;-52
2021/04/11 00:39:44;;;;;;;2.50;1.33;;;;;;;;;;5004027;28;20040;-55
2021/04/11 00:42:15;;;;;;;2.88;1.52;;;;;;;;;;5004150;28;20034;-56
2021/04/11 00:44:41;;;;;;;4.13;1.63;;;;;;;;;;5010748;28;20052;-55
2021/04/11 00:47:07;;;;;;;2.72;1.35;;;;;;;;;;5019771;28;20042;-56
2021/04/11 00:49:34;;;;;;;3.22;1.60;;;;;;;;;;5017310;28;20115;-54
2021/04/11 00:52:01;;;;;;;3.03;1.30;;;;;;;;;;5002712;28;20034;-57
2021/04/11 00:54:27;;;;;;;2.53;1.27;;;;;;;;;;4995075;28;20045;-57
2021/04/11 00:56:54;;;;;;;2.30;1.17;;;;;;;;;;5003413;28;20090;-55
2021/04/11 00:59:21;;;;;;;2.08;1.23;;;;;;;;;;4994584;28;20038;-57
2021/04/11 01:01:47;;;;;;;2.20;1.17;;;;;;;;;;4983626;28;20034;-56
2021/04/11 01:04:14;;;;;;;3.17;1.67;;;;;;;;;;4985746;28;20092;-57
2021/04/11 01:06:41;;;;;;;2.55;1.35;;;;;;;;;;5000797;28;20049;-60
2021/04/11 01:09:10;;;;;;;2.95;1.27;;;;;;;;;;4994023;28;20121;-59
2021/04/11 01:11:36;;;;;;;3.00;1.38;;;;;;;;;;4981806;28;20042;-56
2021/04/11 01:14:05;;;;;;;4.45;1.60;;;;;;;;;;4980390;28;20134;-53
2021/04/11 01:16:32;;;;;;;4.45;1.50;;;;;;;;;;4983132;28;20048;-55
2021/04/11 01:18:58;;;;;;;2.80;1.23;;;;;;;;;;4981897;28;20050;-56
2021/04/11 01:21:28;;;;;;;2.30;1.40;;;;;;;;;;4978911;28;20051;-51
2021/04/11 01:23:57;;;;;;;2.22;1.35;;;;;;;;;;4982093;28;20042;-56
2021/04/11 01:26:23;;;;;;;;;;;;;;;;;;5011453;28;20489;-56
2021/04/11 01:28:50;;;;;;;2.40;1.30;;;;;;;;;;5000566;28;19917;-60
2021/04/11 01:31:16;;;;;;;2.25;1.30;;;;;;;;;;4987871;28;20057;-54
2021/04/11 01:33:44;;;;;;;2.47;1.20;;;;;;;;;;4991878;28;20038;-50
2021/04/11 01:36:11;;;;;;;2.25;1.25;;;;;;;;;;4991209;28;20537;-51
2021/04/11 01:38:37;;;;;;;4.88;1.42;;;;;;;;;;4983970;28;20027;-50
2021/04/11 01:41:08;;;;;;;1.58;0.90;;;;;;;;;;4983204;28;20042;-52
2021/04/11 01:43:35;;;;;;;2.67;1.45;;;;;;;;;;4999985;28;20050;-56
2021/04/11 01:46:03;;;;;;;3.88;1.67;;;;;;;;;;4980221;28;20399;-57
2021/04/11 01:48:29;;;;;;;1.13;0.75;;;;;;;;;;4983982;28;20057;-57
2021/04/11 01:50:56;;;;;;;1.83;1.20;;;;;;;;;;4996739;28;20058;-52
2021/04/11 01:53:23;;;;;;;1.95;1.08;;;;;;;;;;4983511;28;20046;-55
2021/04/11 01:55:50;;;;;;;3.58;1.67;;;;;;;;;;4978922;28;20042;-55
2021/04/11 01:58:16;;;;;;;3.53;1.67;;;;;;;;;;4983857;28;20039;-54
2021/04/11 02:00:46;;;;;;;2.60;1.30;;;;;;;;;;4986350;28;20050;-56
2021/04/11 02:03:15;;;;;;;3.30;1.60;;;;;;;;;;4982261;28;20039;-54
2021/04/11 02:05:41;;;;;;;1.35;0.93;;;;;;;;;;4982813;28;20058;-52
2021/04/11 02:08:08;;;;;;;3.47;1.60;;;;;;;;;;4980774;28;20046;-55
2021/04/11 02:10:36;;;;;;;2.65;1.25;;;;;;;;;;4984088;28;20039;-59
2021/04/11 02:13:02;;;;;;;2.90;1.20;;;;;;;;;;4994208;28;20050;-59
2021/04/11 02:15:29;;;;;;;3.45;1.30;;;;;;;;;;5002471;28;20045;-53
2021/04/11 02:17:55;;;;;;;3.97;1.23;;;;;;;;;;4987657;28;20125;-53
2021/04/11 02:20:24;;;;;;;1.90;1.10;;;;;;;;;;4985033;28;20121;-51
2021/04/11 02:22:54;;;;;;;1.85;0.95;;;;;;;;;;4990801;28;20030;-52
2021/04/11 02:25:21;;;;;;;1.33;1.00;;;;;;;;;;5005448;28;20057;-50
2021/04/11 02:27:47;;;;;;;1.42;0.90;;;;;;;;;;5014211;28;20045;-55
2021/04/11 02:30:15;;;;;;;1.38;0.90;;;;;;;;;;5005050;28;20042;-52
2021/04/11 02:32:41;;;;;;;0.93;0.83;;;;;;;;;;4993345;28;20042;-55
2021/04/11 02:35:08;;;;;;;1.35;0.75;;;;;;;;;;5001875;28;20137;-56
2021/04/11 02:37:36;;;;;;;2.42;1.17;;;;;;;;;;4961330;28;20055;-56
2021/04/11 02:40:05;;;;;;;1.80;0.93;;;;;;;;;;4963346;28;20086;-56
2021/04/11 02:42:32;;;;;;;0.95;0.70;;;;;;;;;;4958962;28;20443;-58
2021/04/11 02:45:02;;;;;;;0.88;0.60;;;;;;;;;;4970959;28;20596;-57
2021/04/11 02:47:28;;;;;;;0.57;0.57;;;;;;;;;;4983539;28;20035;-55
2021/04/11 02:49:53;;;;;;;1.23;0.80;;;;;;;;;;4980734;28;20050;-56
2021/04/11 02:52:21;;;;;;;0.50;0.50;;;;;;;;;;4982604;28;20061;-56
2021/04/11 02:54:48;;;;;;;0.57;0.57;;;;;;;;;;4965853;28;20039;-50
2021/04/11 02:57:14;;;;;;;1.00;0.60;;;;;;;;;;4965430;28;20042;-56
2021/04/11 02:59:41;;;;;;;0.75;0.60;;;;;;;;;;4985211;28;20074;-55
2021/04/11 03:02:07;;;;;;;0.30;0.30;;;;;;;;;;5045486;23;20061;-53
2021/04/11 03:04:33;;;;;;;0.52;0.52;;;;;;;;;;5026867;28;20346;-54
2021/04/11 03:07:01;;;;;;;0.57;0.45;;;;;;;;;;5045977;28;20034;-55
2021/04/11 03:09:30;;;;;;;0.40;0.40;;;;;;;;;;5029766;28;20073;-50
2021/04/11 03:11:58;;;;;;;0.68;0.55;;;;;;;;;;5033238;28;20048;-53
2021/04/11 03:14:26;;;;;;;0.70;0.50;;;;;;;;;;5029342;28;20074;-56
2021/04/11 03:16:54;;;;;;;0.80;0.70;;;;;;;;;;5029011;28;20072;-57
2021/04/11 03:19:34;;;;;;;3.80;0.70;;;;;;;;;;5032331;28;20049;-52
2021/04/11 03:22:08;;;;;;;1.45;0.73;;;;;;;;;;5024007;28;20302;-59
2021/04/11 03:24:33;;;;;;;0.70;0.68;;;;;;;;;;5033429;28;20038;-56
2021/04/11 03:27:03;;;;;;;0.70;0.45;;;;;;;;;;5007521;28;20127;-54
2021/04/11 03:29:32;;;;;;;2.75;0.47;;;;;;;;;;5032124;28;20057;-53
2021/04/11 03:32:02;;;;;;;1.67;0.52;;;;;;;;;;5025834;28;20037;-55
2021/04/11 03:34:30;;;;;;;0.45;0.45;;;;;;;;;;5026427;28;20060;-53
2021/04/11 03:36:56;;;;;;;0.50;0.50;;;;;;;;;;5049920;28;20057;-52
2021/04/11 03:39:22;;;;;;;0.55;0.40;;;;;;;;;;5031272;28;20060;-58
2021/04/11 03:41:49;;;;;;;0.95;0.60;;;;;;;;;;5032361;28;20048;-56
2021/04/11 03:44:19;;;;;;;1.13;0.63;;;;;;;;;;5024110;28;20053;-52
2021/04/11 03:46:46;;;;;;;0.30;0.30;;;;;;;;;;5021260;28;20060;-54
2021/04/11 03:49:15;;;;;;;0.80;0.40;;;;;;;;;;5022808;28;20068;-56
2021/04/11 03:51:43;;;;;;;0.50;0.50;;;;;;;;;;5029818;28;20044;-58
2021/04/11 03:54:11;;;;;;;0.70;0.60;;;;;;;;;;5023122;28;20118;-50
2021/04/11 03:56:40;;;;;;;4.03;0.52;;;;;;;;;;5032652;28;20042;-60
2021/04/11 03:59:07;;;;;;;0.82;0.50;;;;;;;;;;5025236;28;20038;-52
2021/04/11 04:01:39;;;;;;;0.38;0.38;;;;;;;;;;5034867;28;20060;-57
2021/04/11 04:04:07;;;;;;;1.05;0.60;;;;;;;;;;5041429;28;20095;-54
2021/04/11 04:06:34;;;;;;;1.20;0.80;;;;;;;;;;5024585;28;20084;-53
2021/04/11 04:09:00;;;;;;;0.70;0.57;;;;;;;;;;5021019;28;20052;-52
2021/04/11 04:11:41;;;;;;;2.55;0.70;;;;;;;;;;5020177;28;20045;-55
2021/04/11 04:14:13;;;;;;;0.52;0.45;;;;;;;;;;5020965;28;20082;-52
2021/04/11 04:16:47;;;;;;;1.55;0.63;;;;;;;;;;5018547;28;20069;-53
2021/04/11 04:19:23;;;;;;;2.20;0.70;;;;;;;;;;5020981;28;20050;-51
2021/04/11 04:21:59;;;;;;;2.53;0.80;;;;;;;;;;5022159;28;20037;-49
2021/04/11 04:24:36;;;;;;;1.67;0.82;;;;;;;;;;5041137;28;20126;-54
2021/04/11 04:27:06;;;;;;;1.13;0.50;;;;;;;;;;5035252;28;20049;-53
2021/04/11 04:29:34;;;;;;;1.52;0.80;;;;;;;;;;5022553;28;20099;-54
2021/04/11 04:32:18;;;;;;;1.55;0.70;;;;;;;;;;5016819;28;20038;-52
2021/04/11 04:34:46;;;;;;;1.38;0.68;;;;;;;;;;5035497;28;20064;-54
2021/04/11 04:37:16;;;;;;;1.05;0.80;;;;;;;;;;5037576;28;20051;-49
2021/04/11 04:39:48;;;;;;;1.08;0.77;;;;;;;;;;5040395;28;20029;-58
2021/04/11 04:42:18;;;;;;;0.75;0.60;;;;;;;;;;5037790;28;20097;-52
2021/04/11 04:44:50;;;;;;;1.70;0.70;;;;;;;;;;5024274;28;20126;-56
2021/04/11 04:47:18;;;;;;;0.50;0.35;;;;;;;;;;5040711;28;20041;-49
2021/04/11 04:49:48;;;;;;;6.38;0.88;;;;;;;;;;5019599;28;20113;-52
2021/04/11 04:52:17;;;;;;;1.38;0.73;;;;;;;;;;5018358;28;20049;-53
2021/04/11 04:54:46;;;;;;;2.08;0.77;;;;;;;;;;5033987;28;20045;-53
2021/04/11 04:57:14;;;;;;;0.90;0.73;;;;;;;;;;5039556;28;20122;-53
2021/04/11 04:59:42;;;;;;;2.22;0.90;;;;;;;;;;5036027;28;20565;-56
2021/04/11 05:02:10;;;;;;;2.10;0.93;;;;;;;;;;5040415;28;20060;-59
2021/04/11 05:04:38;;;;;;;1.75;0.80;;;;;;;;;;5037119;28;20107;-51
2021/04/11 05:07:08;;;;;;;1.63;0.50;;;;;;;;;;5045384;28;20565;-54
2021/04/11 05:09:36;;;;;;;2.30;0.80;;;;;;;;;;5035565;28;20044;-53
2021/04/11 05:12:05;;;;;;;1.65;0.73;;;;;;;;;;5043326;28;20071;-55
2021/04/11 05:14:35;;;;;;;1.63;0.85;;;;;;;;;;5030085;28;20091;-51
2021/04/11 05:17:06;;;;;;;1.00;0.52;;;;;;;;;;5016077;28;20089;-54
2021/04/11 05:19:34;;;;;;;0.65;0.63;;;;;;;;;;5024859;28;20061;-49
2021/04/11 05:22:03;;;;;;;1.40;0.75;;;;;;;;;;5024085;28;20048;-54
2021/04/11 05:24:34;;;;;;;2.65;1.00;;;;;;;;;;5022153;28;20038;-54
2021/04/11 05:27:16;;;;;;;1.27;0.60;;;;;;;;;;5023245;28;20048;-52
2021/04/11 05:29:45;;;;;;;1.50;0.88;;;;;;;;;;5024795;28;20095;-53
2021/04/11 05:32:15;;;;;;;0.80;0.47;;;;;;;;;;5043101;28;20095;-52
2021/04/11 05:34:41;;;;;;;1.55;0.73;;;;;;;;;;5036357;28;20049;-53
2021/04/11 05:37:14;;;;;;;0.20;0.20;;;;;;;;;;5022141;28;20029;-54
2021/04/11 05:39:45;;;;;;;5.10;0.70;;;;;;;;;;5011389;28;20053;-54
2021/04/11 05:42:27;;;;;;;1.67;0.50;;;;;;;;;;5028225;28;20075;-54
2021/04/11 05:44:56;;;;;;;3.95;0.85;;;;;;;;;;5039509;28;20045;-54
2021/04/11 05:47:24;;;;;;;0.93;0.45;;;;;;;;;;5044266;28;20041;-54
2021/04/11 05:49:53;;;;;;;2.55;0.80;;;;;;;;;;5041647;28;20092;-59
2021/04/11 05:52:22;;;;;;;0.80;0.50;;;;;;;;;;5043717;28;20049;-53
2021/04/11 05:54:50;;;;;;;1.05;0.47;;;;;;;;;;5045216;28;20037;-54
2021/04/11 05:57:18;;;;;;;0.40;0.40;;;;;;;;;;5022132;28;20046;-58
2021/04/11 05:59:46;;;;;;;0.40;0.40;;;;;;;;;;5021420;28;20044;-58
2021/04/11 06:02:18;;;;;;;2.80;0.70;;;;;;;;;;5020598;28;20056;-57
2021/04/11 06:04:45;;;;;;;0.88;0.43;;;;;;;;;;5021927;28;20030;-55
2021/04/11 06:07:13;;;;;;;1.40;0.80;;;;;;;;;;5019741;28;20073;-57
2021/04/11 06:09:40;;;;;;;2.85;0.80;;;;;;;;;;5023110;28;20068;-56
2021/04/11 06:12:11;;;;;;;6.28;1.38;;;;;;;;;;5031834;28;20029;-57
2021/04/11 06:14:42;;;;;;;4.93;0.77;;;;;;;;;;5041933;28;20045;-60
2021/04/11 06:17:09;;;;;;;0.80;0.50;;;;;;;;;;5026067;28;20049;-51
2021/04/11 06:19:35;;;;;;;1.48;0.45;;;;;;;;;;5022193;28;20044;-56
2021/04/11 06:22:08;;;;;;;4.60;0.60;;;;;;;;;;5025553;28;20041;-58
2021/04/11 06:24:39;;;;;;;1.05;0.60;;;;;;;;;;5042289;28;20052;-52
2021/04/11 06:27:09;;;;;;;1.13;0.70;;;;;;;;;;5032117;28;20046;-57
2021/04/11 06:29:41;;;;;;;4.25;1.20;;;;;;;;;;5021986;28;20363;-57
2021/04/11 06:32:09;;;;;;;4.25;0.90;;;;;;;;;;5023426;28;20043;-49
2021/04/11 06:34:38;;;;;;;0.57;0.50;;;;;;;;;;5038573;28;20054;-53
2021/04/11 06:37:07;;;;;;;0.68;0.52;;;;;;;;;;5019891;28;20148;-53
2021/04/11 06:39:35;;;;;;;1.45;0.75;;;;;;;;;;5041342;28;20048;-57
2021/04/11 06:42:13;;;;;;;0.90;0.50;;;;;;;;;;5039442;28;20052;-60
2021/04/11 06:44:59;;;;;;;1.17;0.70;;;;;;;;;;5021499;28;20054;-57
2021/04/11 06:47:37;;;;;;;2.13;0.82;;;;;;;;;;5017119;28;20053;-59
2021/04/11 06:50:13;;;;;;;1.70;0.43;;;;;;;;;;5023850;28;20034;-53
2021/04/11 06:52:45;;;;;;;1.48;0.82;;;;;;;;;;5021796;28;20055;-55
2021/04/11 06:55:15;;;;;;;1.98;0.60;;;;;;;;;;5040169;28;20144;-61
2021/04/11 06:57:46;;;;;;;2.05;0.80;;;;;;;;;;5038815;28;20101;-55
2021/04/11 07:00:22;;;;;;;1.23;0.60;;;;;;;;;;5026005;28;20037;-55
2021/04/11 07:03:07;;;;;;;1.52;0.60;;;;;;;;;;5019118;28;20052;-56
2021/04/11 07:05:47;;;;;;;1.15;0.60;;;;;;;;;;5042272;28;20049;-55
2021/04/11 07:08:28;;;;;;;1.85;0.68;;;;;;;;;;5037109;28;20111;-55
2021/04/11 07:11:16;;;;;;;2.97;1.17;;;;;;;;;;5041758;28;20156;-55
2021/04/11 07:13:57;;;;;;;2.92;0.80;;;;;;;;;;5035126;28;20097;-51
2021/04/11 07:16:41;;;;;;;7.05;1.02;;;;;;;;;;5037177;28;20168;-51
2021/04/11 07:19:27;;;;;;;1.65;0.63;;;;;;;;;;5020004;28;20049;-54
2021/04/11 07:22:10;;;;;;;2.42;0.77;;;;;;;;;;5022594;28;20056;-58
2021/04/11 07:24:46;;;;;;;0.95;0.65;;;;;;;;;;4990172;28;20096;-57
2021/04/11 07:27:31;;;;;;;3.83;0.90;;;;;;;;;;5021121;28;20124;-57
2021/04/11 07:30:07;;;;;;;4.85;1.30;;;;;;;;;;5019745;28;20057;-57
2021/04/11 07:32:54;;;;;;;4.45;1.02;;;;;;;;;;5025962;28;20033;-56
2021/04/11 07:35:25;;;;;;;2.40;0.73;;;;;;;;;;5031545;28;20061;-55
2021/04/11 07:38:06;;;;;;;1.35;0.55;;;;;;;;;;5026987;28;20033;-59
2021/04/11 07:40:40;;;;;;;1.02;0.73;;;;;;;;;;5023090;28;20040;-58
2021/04/11 07:43:17;;;;;;;1.42;0.73;;;;;;;;;;5054420;28;20037;-58
2021/04/11 07:45:51;;;;;;;1.35;0.80;;;;;;;;;;5025175;28;20056;-59
2021/04/11 07:48:35;;;;;;;1.70;0.80;;;;;;;;;;5034114;28;20089;-57
2021/04/11 07:51:17;;;;;;;0.93;0.63;;;;;;;;;;5027044;28;20168;-59
2021/04/11 07:53:54;;;;;;;1.75;0.55;;;;;;;;;;5029513;28;20080;-53
2021/04/11 07:56:23;;;;;;;1.42;0.70;;;;;;;;;;5022730;28;20049;-55
2021/04/11 07:59:13;;;;;;;3.40;0.80;;;;;;;;;;5030602;28;20443;-58
2021/04/11 08:01:47;;;;;;;1.33;0.60;;;;;;;;;;5021277;28;20085;-58
2021/04/11 08:04:37;;;;;;;4.30;0.70;;;;;;;;;;5027300;28;20135;-58
2021/04/11 08:07:11;;;;;;;1.75;0.68;;;;;;;;;;4951754;28;20039;-56
2021/04/11 08:09:47;;;;;;;2.08;0.82;;;;;;;;;;5027837;28;20050;-59
2021/04/11 08:12:27;;;;;;;3.28;0.75;;;;;;;;;;5028722;28;20038;-56
2021/04/11 08:14:56;;;;;;;0.47;0.47;;;;;;;;;;5026493;28;20042;-59
2021/04/11 08:17:36;;;;;;;5.93;0.70;;;;;;;;;;5026992;28;20062;-55
2021/04/11 08:20:12;;;;;;;1.35;0.73;;;;;;;;;;5030171;28;20049;-58
2021/04/11 08:22:57;;;;;;;2.28;0.90;;;;;;;;;;5028202;28;20033;-60
2021/04/11 08:25:28;;;;;;;3.90;0.80;;;;;;;;;;5031928;28;20041;-56
2021/04/11 08:28:03;;;;;;;0.95;0.60;;;;;;;;;;5024246;28;20042;-57
2021/04/11 08:30:44;;;;;;;1.58;0.73;;;;;;;;;;5055246;28;20163;-63
2021/04/11 08:33:25;;;;;;;3.58;0.77;;;;;;;;;;5014603;28;20033;-59
2021/04/11 08:36:00;;;;;;;0.73;0.50;;;;;;;;;;5030370;28;20068;-61
2021/04/11 08:38:31;;;;;;;2.08;0.45;;;;;;;;;;5022684;28;20054;-59
2021/04/11 08:41:05;;;;;;;1.90;0.70;;;;;;;;;;5031011;28;20120;-57
2021/04/11 08:43:42;;;;;;;1.65;0.60;;;;;;;;;;5022516;28;20045;-57
2021/04/11 08:46:12;;;;;;;4.03;0.60;;;;;;;;;;5029961;28;20494;-56
2021/04/11 08:48:46;;;;;;;0.90;0.50;;;;;;;;;;5028358;28;20053;-59
2021/04/11 08:51:15;;;;;;;1.35;0.55;;;;;;;;;;5030187;28;20049;-55
2021/04/11 08:53:45;;;;;;;4.28;0.90;;;;;;;;;;5025611;28;20038;-58
2021/04/11 08:56:17;;;;;;;3.38;0.82;;;;;;;;;;5031331;28;20098;-58
2021/04/11 08:58:52;;;;;;;1.70;0.50;;;;;;;;;;5023733;28;20056;-56
2021/04/11 09:01:25;;;;;;;1.90;0.60;;;;;;;;;;5018489;28;20037;-52
2021/04/11 09:03:57;;;;;;;2.90;0.80;;;;;;;;;;5021630;28;20057;-57
2021/04/11 09:06:29;;;;;;;1.00;0.65;;;;;;;;;;5021653;28;20131;-58
2021/04/11 09:09:04;;;;;;;1.95;0.65;;;;;;;;;;5025899;28;20171;-58
2021/04/11 09:11:34;;;;;;;1.60;0.73;;;;;;;;;;5042019;28;20034;-57
2021/04/11 09:14:07;;;;;;;2.35;0.90;;;;;;;;;;5025355;28;20057;-57
2021/04/11 09:16:39;;;;;;;2.50;0.70;;;;;;;;;;5020376;28;20100;-58
2021/04/11 09:19:09;;;;;;;1.75;0.70;;;;;;;;;;5025741;28;20048;-59
2021/04/11 09:21:53;;;;;;;1.67;0.70;;;;;;;;;;5040659;28;20034;-54
2021/04/11 09:24:20;;;;;;;10.82;0.70;;;;;;;;;;5033183;28;20114;-58
2021/04/11 09:27:13;;;;;;;1.75;0.60;;;;;;;;;;5018606;28;20045;-57
2021/04/11 09:29:47;;;;;;;2.60;0.57;;;;;;;;;;4987129;28;20070;-56
2021/04/11 09:32:32;;;;;;;2.00;0.90;;;;;;;;;;5036607;28;20038;-58
2021/04/11 09:35:03;;;;;;;2.88;0.70;;;;;;;;;;5025268;28;20037;-57
2021/04/11 09:37:41;;;;;;;1.17;0.70;;;;;;;;;;5039465;28;20134;-58
2021/04/11 09:40:10;;;;;;;2.13;0.60;;;;;;;;;;5025682;28;20030;-60
2021/04/11 09:42:51;;;;;;;1.13;0.60;;;;;;;;;;5020475;28;20034;-61
2021/04/11 09:45:23;;;;;;;1.75;0.60;;;;;;;;;;5014992;28;20074;-61
2021/04/11 09:48:01;;;;;;;1.77;0.50;;;;;;;;;;5020285;28;20038;-57
2021/04/11 09:50:42;;;;;;;5.00;0.60;;;;;;;;;;5016130;28;20059;-58
2021/04/11 09:53:29;;;;;;;4.30;0.70;;;;;;;;;;5022653;28;20037;-58
2021/04/11 09:55:58;;;;;;;2.63;0.40;;;;;;;;;;5022350;28;20119;-62
2021/04/11 09:58:24;;;;;;;;;;;;;;;;;;5043622;28;20152;-61
2021/04/11 10:00:55;;;;;;;1.23;0.50;;;;;;;;;;5038455;28;19935;-59
2021/04/11 10:03:41;;;;;;;1.30;0.55;;;;;;;;;;5043498;28;20041;-56
2021/04/11 10:06:15;;;;;;;3.95;0.60;;;;;;;;;;5038587;28;20045;-60
2021/04/11 10:08:52;;;;;;;2.53;0.52;;;;;;;;;;5043772;28;20045;-56
2021/04/11 10:11:23;;;;;;;2.33;0.40;;;;;;;;;;5030993;28;20050;-57
2021/04/11 10:13:59;;;;;;;1.27;0.38;;;;;;;;;;5017388;28;20119;-61
2021/04/11 10:16:28;;;;;;;4.18;0.50;;;;;;;;;;5020654;28;20111;-57
2021/04/11 10:18:56;;;;;;;;;;;;;;;;;;5024962;28;20038;-61
2021/04/11 10:21:25;;;;;;;3.35;0.75;;;;;;;;;;5019119;28;19937;-62
2021/04/11 10:24:02;;;;;;;0.20;0.20;;;;;;;;;;5023441;28;20033;-58
2021/04/11 10:26:31;;;;;;;2.22;0.47;;;;;;;;;;5024408;28;20052;-60
2021/04/11 10:29:00;;;;;;;0.57;0.50;;;;;;;;;;5041548;28;20410;-57
2021/04/11 10:31:32;;;;;;;2.63;0.50;;;;;;;;;;5034392;28;20323;-58
2021/04/11 10:34:06;;;;;;;3.03;0.40;;;;;;;;;;5020222;28;20045;-56
2021/04/11 10:36:36;;;;;;;0.43;0.35;;;;;;;;;;5019770;28;20046;-59
2021/04/11 10:39:04;;;;;;;3.15;0.70;;;;;;;;;;5021420;28;20045;-58
2021/04/11 10:41:37;;;;;;;2.05;0.68;;;;;;;;;;5018742;28;20037;-56
2021/04/11 10:44:20;;;;;;;0.90;0.50;;;;;;;;;;5019066;28;20057;-57
2021/04/11 10:46:59;;;;;;;3.53;0.60;;;;;;;;;;5036253;28;20037;-56
2021/04/11 10:49:27;;;;;;;3.55;1.30;;;;;;;;;;5039647;28;20033;-59
2021/04/11 10:52:05;;;;;;;5.07;0.85;;;;;;;;;;5038010;28;20081;-57
2021/04/11 10:54:55;;;;;;;2.20;0.68;;;;;;;;;;5042997;28;20054;-57
2021/04/11 10:57:40;;;;;;;4.70;0.98;;;;;;;;;;5033534;28;20048;-58
2021/04/11 11:00:10;;;;;;;5.38;0.80;;;;;;;;;;5021983;28;20046;-56
2021/04/11 11:02:55;;;;;;;0.70;0.50;;;;;;;;;;5024582;28;20042;-56
2021/04/11 11:05:48;;;;;;;2.20;0.55;;;;;;;;;;5021876;28;20487;-61
2021/04/11 11:08:18;;;;;;;6.78;0.90;;;;;;;;;;4983042;28;20048;-56
2021/04/11 11:10:59;;;;;;;5.50;0.98;;;;;;;;;;5024515;28;20037;-61
2021/04/11 11:13:38;;;;;;;2.85;0.80;;;;;;;;;;5024294;28;20053;-56
2021/04/11 11:16:10;;;;;;;7.40;0.85;;;;;;;;;;5030679;28;20041;-58
2021/04/11 11:18:52;;;;;;;3.58;0.63;;;;;;;;;;5022832;28;20045;-52
2021/04/11 11:21:33;;;;;;;3.90;0.80;;;;;;;;;;5038858;28;20114;-54
2021/04/11 11:24:12;;;;;;;6.18;0.90;;;;;;;;;;5019374;28;20053;-61
2021/04/11 11:26:47;;;;;;;2.00;0.70;;;;;;;;;;5021454;28;20044;-59
2021/04/11 11:29:29;;;;;;;2.53;0.60;;;;;;;;;;5027554;28;20033;-55
2021/04/11 11:31:59;;;;;;;3.53;0.65;;;;;;;;;;5041200;28;20065;-57
2021/04/11 11:34:37;;;;;;;5.45;0.80;;;;;;;;;;5033213;28;20055;-58
2021/04/11 11:37:08;;;;;;;1.83;0.55;;;;;;;;;;5040993;28;20422;-60
2021/04/11 11:39:37;;;;;;;1.23;0.40;;;;;;;;;;5036117;28;20056;-58
2021/04/11 11:42:07;;;;;;;1.50;0.60;;;;;;;;;;5041891;28;20052;-62
2021/04/11 11:44:37;;;;;;;2.88;0.60;;;;;;;;;;5031712;28;20056;-59
2021/04/11 11:47:06;;;;;;;2.70;0.60;;;;;;;;;;5012268;28;20030;-55
2021/04/11 11:49:37;;;;;;;2.28;0.80;;;;;;;;;;5024161;28;20033;-56
2021/04/11 11:52:05;;;;;;;1.27;0.65;;;;;;;;;;5042925;28;20033;-58
2021/04/11 11:54:34;;;;;;;2.00;0.57;;;;;;;;;;5036478;28;20034;-60
2021/04/11 11:57:06;;;;;;;0.93;0.50;;;;;;;;;;5041743;28;20483;-61
2021/04/11 11:59:35;;;;;;;5.32;0.70;;;;;;;;;;5035765;28;20041;-63
2021/04/11 12:02:04;;;;;;;1.50;0.57;;;;;;;;;;5022755;28;20388;-54
2021/04/11 12:04:42;;;;;;;2.17;0.80;;;;;;;;;;5019116;28;20133;-59
2021/04/11 12:07:11;;;;;;;1.35;0.50;;;;;;;;;;5022565;28;20046;-57
2021/04/11 12:09:41;;;;;;;5.15;1.25;;;;;;;;;;5020975;28;20049;-56
2021/04/11 12:12:11;;;;;;;3.00;0.80;;;;;;;;;;5018483;28;20053;-59
2021/04/11 12:14:44;;;;;;;4.40;0.80;;;;;;;;;;5020810;28;20158;-57
2021/04/11 12:17:12;;;;;;;0.50;0.32;;;;;;;;;;5018076;28;20069;-53
2021/04/11 12:19:42;;;;;;;5.68;0.90;;;;;;;;;;5020649;28;20033;-56
2021/04/11 12:22:10;;;;;;;1.05;0.57;;;;;;;;;;5032662;28;20045;-55
2021/04/11 12:24:39;;;;;;;2.28;0.70;;;;;;;;;;5040848;28;20057;-59
2021/04/11 12:27:06;;;;;;;1.95;0.63;;;;;;;;;;5022779;28;20068;-59
2021/04/11 12:29:34;;;;;;;3.20;0.63;;;;;;;;;;5022190;28;20056;-57
2021/04/11 12:32:10;;;;;;;2.47;0.57;;;;;;;;;;5017436;28;20052;-63
2021/04/11 12:34:42;;;;;;;1.15;0.50;;;;;;;;;;5052511;28;20045;-56
2021/04/11 12:37:13;;;;;;;3.03;0.55;;;;;;;;;;5027124;28;20049;-58
2021/04/11 12:39:40;;;;;;;5.78;0.60;;;;;;;;;;5020249;28;20049;-56
2021/04/11 12:42:17;;;;;;;4.32;0.52;;;;;;;;;;5030897;28;20126;-59
2021/04/11 12:44:47;;;;;;;2.30;0.70;;;;;;;;;;5031455;28;20065;-55
2021/04/11 12:47:36;;;;;;;2.63;0.55;;;;;;;;;;5016566;28;20034;-62
2021/04/11 12:50:04;;;;;;;2.92;0.60;;;;;;;;;;5017901;28;20042;-56
2021/04/11 12:52:34;;;;;;;3.53;0.50;;;;;;;;;;5026387;28;20048;-57
2021/04/11 12:55:02;;;;;;;5.40;0.80;;;;;;;;;;5034478;28;20044;-59
2021/04/11 12:57:30;;;;;;;4.97;1.00;;;;;;;;;;5018706;28;20034;-63
2021/04/11 12:59:58;;;;;;;1.02;0.60;;;;;;;;;;5021348;28;20056;-59
2021/04/11 13:02:28;;;;;;;4.30;1.08;;;;;;;;;;5026801;28;20045;-57
2021/04/11 13:04:59;;;;;;;2.85;1.02;;;;;;;;;;5028957;28;20034;-54
2021/04/11 13:07:27;;;;;;;1.33;0.50;;;;;;;;;;5027722;28;20041;-56
2021/04/11 13:10:08;;;;;;;1.00;0.43;;;;;;;;;;5031126;28;20064;-58
2021/04/11 13:12:41;;;;;;;1.88;0.77;;;;;;;;;;5030306;28;20045;-55
2021/04/11 13:15:15;;;;;;;1.98;0.77;;;;;;;;;;5028743;28;20125;-62
2021/04/11 13:17:44;;;;;;;2.13;0.68;;;;;;;;;;5024262;28;20512;-55
2021/04/11 13:20:15;;;;;;;1.17;0.55;;;;;;;;;;5027932;28;20052;-59
2021/04/11 13:22:43;;;;;;;2.33;0.63;;;;;;;;;;5032266;28;20038;-58
2021/04/11 13:25:14;;;;;;;5.47;0.82;;;;;;;;;;5030941;28;20033;-55
2021/04/11 13:27:42;;;;;;;0.43;0.28;;;;;;;;;;5029514;28;20033;-55
2021/04/11 13:30:12;;;;;;;4.67;0.70;;;;;;;;;;5025716;28;20049;-59
2021/04/11 13:32:46;;;;;;;0.85;0.38;;;;;;;;;;5028309;28;20331;-55
2021/04/11 13:35:19;;;;;;;1.25;0.50;;;;;;;;;;5036896;28;20049;-61
2021/04/11 13:37:48;;;;;;;2.03;0.68;;;;;;;;;;5031369;28;20037;-57
2021/04/11 13:40:16;;;;;;;1.35;0.50;;;;;;;;;;5028876;28;20118;-59
2021/04/11 13:42:42;;;;;;;;;;;;;;;;;;5033622;28;20037;-60
2021/04/11 13:45:16;;;;;;;1.20;0.35;;;;;;;;;;5006997;28;19925;-59
2021/04/11 13:47:47;;;;;;;0.73;0.50;;;;;;;;;;5030896;28;20110;-62
2021/04/11 13:50:16;;;;;;;0.47;0.30;;;;;;;;;;5016568;28;20077;-59
2021/04/11 13:52:45;;;;;;;1.65;0.60;;;;;;;;;;5041493;28;20037;-58
2021/04/11 13:55:13;;;;;;;4.90;0.80;;;;;;;;;;5025333;28;20049;-60
2021/04/11 13:57:42;;;;;;;2.60;0.80;;;;;;;;;;5031727;28;20057;-60
2021/04/11 14:00:26;;;;;;;3.50;1.42;;;;;;;;;;5027096;28;20042;-58
2021/04/11 14:02:52;;;;;;;0.45;0.38;;;;;;;;;;5031880;28;20037;-58
2021/04/11 14:05:25;;;;;;;3.50;0.75;;;;;;;;;;5029914;28;20069;-58
2021/04/11 14:07:59;;;;;;;6.30;0.70;;;;;;;;;;5035751;28;20058;-59
2021/04/11 14:10:31;;;;;;;1.55;0.50;;;;;;;;;;5026322;28;20037;-56
2021/04/11 14:13:04;;;;;;;1.30;0.60;;;;;;;;;;5029625;28;20033;-61
2021/04/11 14:15:32;;;;;;;1.50;0.40;;;;;;;;;;5024968;28;20154;-62
2021/04/11 14:18:01;;;;;;;2.85;0.77;;;;;;;;;;5033420;28;20057;-62
2021/04/11 14:20:33;;;;;;;4.80;0.70;;;;;;;;;;5029904;28;20037;-63
2021/04/11 14:23:01;;;;;;;2.63;0.60;;;;;;;;;;5054863;28;20038;-59
2021/04/11 14:25:30;;;;;;;4.40;0.70;;;;;;;;;;5026216;28;20034;-58
2021/04/11 14:27:59;;;;;;;5.75;0.80;;;;;;;;;;5028568;28;20045;-59
2021/04/11 14:30:29;;;;;;;2.40;0.52;;;;;;;;;;5030933;28;20119;-62
2021/04/11 14:33:01;;;;;;;1.63;0.65;;;;;;;;;;5033696;28;20029;-60
2021/04/11 14:35:30;;;;;;;1.13;0.52;;;;;;;;;;5028001;28;20041;-60
2021/04/11 14:38:00;;;;;;;0.20;0.20;;;;;;;;;;5034514;28;20033;-61
2021/04/11 14:40:29;;;;;;;1.10;0.60;;;;;;;;;;5028384;28;20049;-58
2021/04/11 14:42:56;;;;;;;0.43;0.43;;;;;;;;;;5029477;28;20046;-62
2021/04/11 14:45:27;;;;;;;1.42;0.40;;;;;;;;;;5032380;28;20045;-62
2021/04/11 14:47:54;;;;;;;1.60;0.50;;;;;;;;;;5032129;28;20053;-60
2021/04/11 14:50:24;;;;;;;0.65;0.40;;;;;;;;;;5032593;28;20037;-63
2021/04/11 14:52:54;;;;;;;2.42;0.50;;;;;;;;;;5026541;28;20049;-61
2021/04/11 14:55:24;;;;;;;1.02;0.40;;;;;;;;;;5030052;28;20082;-61
2021/04/11 14:57:54;;;;;;;0.60;0.50;;;;;;;;;;5039277;28;20053;-60
2021/04/11 15:00:29;;;;;;;0.32;0.28;;;;;;;;;;5029592;28;20042;-63
2021/04/11 15:03:01;;;;;;;1.45;0.52;;;;;;;;;;5050989;28;20037;-62
2021/04/11 15:05:32;;;;;;;0.85;0.40;;;;;;;;;;5032272;28;20069;-61
2021/04/11 15:08:05;;;;;;;8.50;0.82;;;;;;;;;;5028562;28;20097;-61